Time;durP1;ratioP1;P1;durP2;ratioP2;P2;SDS_P1;SDS_P2;PMS_P1;PMS_P2;Temp;Humidity;BMP_temperature;BMP_pressure;BME280_temperature;BME280_humidity;BME280_pressure;Samples;Min_cycle;Max_cycle;Signal;HPM_P1;HPM_P2
2024/01/05 00:01:23;;;;;;;2.88;0.80;;;8.80;85.40;;;;;;5055062;28;20462;-63
2024/01/05 00:03:49;;;;;;;5.22;1.10;;;8.70;85.40;;;;;;5064063;28;20060;-63
2024/01/05 00:06:15;;;;;;;3.58;1.08;;;8.70;85.60;;;;;;5074991;28;20025;-63
2024/01/05 00:08:40;;;;;;;3.15;1.13;;;8.70;85.70;;;;;;5074418;28;20028;-64
2024/01/05 00:11:06;;;;;;;4.10;1.00;;;8.70;85.80;;;;;;5074272;28;20111;-64
2024/01/05 00:13:31;;;;;;;1.63;0.98;;;8.70;85.80;;;;;;5074589;28;20409;-63
2024/01/05 00:15:57;;;;;;;2.30;1.08;;;8.70;85.90;;;;;;5074406;28;20031;-64
2024/01/05 00:18:23;;;;;;;2.45;0.90;;;8.70;85.80;;;;;;5074623;28;20358;-64
2024/01/05 00:20:48;;;;;;;2.42;1.10;;;8.70;86.00;;;;;;5074649;28;20033;-66
2024/01/05 00:23:14;;;;;;;1.45;0.90;;;8.70;85.80;;;;;;5074533;28;20040;-64
2024/01/05 00:25:40;;;;;;;2.95;1.05;;;8.70;85.70;;;;;;5074044;28;20078;-64
2024/01/05 00:28:06;;;;;;;1.38;0.70;;;8.70;85.80;;;;;;5073964;28;20032;-64
2024/01/05 00:30:34;;;;;;;3.25;1.00;;;8.60;85.80;;;;;;5074301;28;20027;-63
2024/01/05 00:33:00;;;;;;;3.50;0.88;;;8.60;85.90;;;;;;5073774;28;20128;-64
2024/01/05 00:35:26;;;;;;;4.57;1.35;;;8.60;85.80;;;;;;5074282;28;20521;-63
2024/01/05 00:37:52;;;;;;;4.00;1.27;;;8.60;85.90;;;;;;5073744;28;20484;-63
2024/01/05 00:40:17;;;;;;;4.07;1.13;;;8.60;86.30;;;;;;5074034;28;20029;-63
2024/01/05 00:42:43;;;;;;;2.38;1.00;;;8.60;85.80;;;;;;5073502;28;20033;-63
2024/01/05 00:45:09;;;;;;;4.72;1.27;;;8.60;85.60;;;;;;5073454;28;20564;-64
2024/01/05 00:47:35;;;;;;;4.20;1.25;;;8.60;85.60;;;;;;5074059;28;20361;-63
2024/01/05 00:50:00;;;;;;;3.42;1.20;;;8.60;85.50;;;;;;5073265;28;20032;-63
2024/01/05 00:52:26;;;;;;;3.08;1.10;;;8.60;85.50;;;;;;5073489;28;20093;-63
2024/01/05 00:54:51;;;;;;;1.95;0.90;;;8.60;85.40;;;;;;5073465;28;20029;-67
2024/01/05 00:57:17;;;;;;;2.47;1.00;;;8.60;85.50;;;;;;5070857;28;20068;-63
2024/01/05 00:59:43;;;;;;;3.60;1.20;;;8.60;85.50;;;;;;5053312;28;20071;-63
2024/01/05 01:02:08;;;;;;;3.00;1.13;;;8.60;85.60;;;;;;5052805;28;20024;-63
2024/01/05 01:04:34;;;;;;;3.13;0.90;;;8.60;85.60;;;;;;5053414;28;20473;-63
2024/01/05 01:06:59;;;;;;;4.90;1.27;;;8.60;85.70;;;;;;5053357;28;20025;-64
2024/01/05 01:09:25;;;;;;;3.60;1.23;;;8.60;85.80;;;;;;5053392;28;20082;-63
2024/01/05 01:11:51;;;;;;;3.80;0.95;;;8.60;85.70;;;;;;5052717;28;20047;-62
2024/01/05 01:14:17;;;;;;;2.78;1.10;;;8.60;85.70;;;;;;5052609;28;20108;-64
2024/01/05 01:16:43;;;;;;;4.60;1.42;;;8.60;85.80;;;;;;5053181;28;20036;-64
2024/01/05 01:19:08;;;;;;;2.08;0.90;;;8.50;85.90;;;;;;5052758;28;20069;-65
2024/01/05 01:21:34;;;;;;;4.00;1.20;;;8.50;85.90;;;;;;5053117;28;20036;-62
2024/01/05 01:24:00;;;;;;;2.97;0.85;;;8.50;85.90;;;;;;5052540;28;20033;-63
2024/01/05 01:26:25;;;;;;;2.28;0.80;;;8.60;85.90;;;;;;5052999;28;20025;-62
2024/01/05 01:28:51;;;;;;;3.47;1.30;;;8.60;85.80;;;;;;5052948;28;20036;-62
2024/01/05 01:31:16;;;;;;;4.45;1.00;;;8.50;85.90;;;;;;5052476;28;20021;-63
2024/01/05 01:33:42;;;;;;;2.70;1.00;;;8.50;86.00;;;;;;5052839;28;20082;-63
2024/01/05 01:36:08;;;;;;;1.55;0.98;;;8.50;86.20;;;;;;5052203;28;20466;-62
2024/01/05 01:38:33;;;;;;;4.82;1.15;;;8.50;86.10;;;;;;5052802;28;20035;-63
2024/01/05 01:40:59;;;;;;;2.25;0.90;;;8.50;86.20;;;;;;5052208;28;20032;-63
2024/01/05 01:43:26;;;;;;;2.42;0.90;;;8.50;86.20;;;;;;5052609;28;20041;-63
2024/01/05 01:45:55;;;;;;;1.83;0.80;;;8.50;86.30;;;;;;5052907;28;20110;-63
2024/01/05 01:48:22;;;;;;;3.45;0.88;;;8.50;86.30;;;;;;5051531;28;20403;-63
2024/01/05 01:50:50;;;;;;;2.60;0.98;;;8.50;86.50;;;;;;5055207;28;20029;-62
2024/01/05 01:53:18;;;;;;;3.88;1.02;;;8.50;86.50;;;;;;5052706;28;20029;-62
2024/01/05 01:55:46;;;;;;;3.65;0.93;;;8.50;86.50;;;;;;5052469;28;20029;-62
2024/01/05 01:58:15;;;;;;;4.80;1.00;;;8.50;86.40;;;;;;5052052;28;20025;-62
2024/01/05 02:00:41;;;;;;;3.88;1.00;;;8.50;86.40;;;;;;5052537;28;20045;-63
2024/01/05 02:03:07;;;;;;;4.95;0.98;;;8.40;86.40;;;;;;5051888;28;20033;-63
2024/01/05 02:05:33;;;;;;;1.92;0.88;;;8.40;86.70;;;;;;5051971;28;20036;-64
2024/01/05 02:07:59;;;;;;;3.28;1.10;;;8.40;86.50;;;;;;5062241;28;20024;-64
2024/01/05 02:10:24;;;;;;;3.00;0.90;;;8.40;86.50;;;;;;5072217;28;20020;-64
2024/01/05 02:12:50;;;;;;;1.85;1.10;;;8.30;86.60;;;;;;5072165;28;20028;-63
2024/01/05 02:15:17;;;;;;;4.57;1.20;;;8.40;86.70;;;;;;5071722;28;20028;-62
2024/01/05 02:17:43;;;;;;;2.45;1.00;;;8.30;86.70;;;;;;5072062;28;20032;-63
2024/01/05 02:20:09;;;;;;;3.45;0.93;;;8.30;86.80;;;;;;5071696;28;20036;-63
2024/01/05 02:22:37;;;;;;;2.45;1.00;;;8.30;87.00;;;;;;5070854;28;20401;-63
2024/01/05 02:25:04;;;;;;;3.33;1.02;;;8.30;86.90;;;;;;5071580;28;20034;-63
2024/01/05 02:27:30;;;;;;;5.18;1.85;;;8.30;87.00;;;;;;5072312;28;20142;-62
2024/01/05 02:29:55;;;;;;;4.55;1.30;;;8.20;87.10;;;;;;5071955;28;20060;-62
2024/01/05 02:32:21;;;;;;;3.13;0.95;;;8.20;87.20;;;;;;5071602;28;20020;-63
2024/01/05 02:34:47;;;;;;;5.05;1.25;;;8.20;87.30;;;;;;5071945;28;20028;-63
2024/01/05 02:37:13;;;;;;;5.85;1.70;;;8.20;87.30;;;;;;5071510;28;20457;-63
2024/01/05 02:39:38;;;;;;;3.25;1.10;;;8.20;87.40;;;;;;5072037;28;20078;-63
2024/01/05 02:42:04;;;;;;;7.05;1.15;;;8.20;87.50;;;;;;5071525;28;20032;-63
2024/01/05 02:44:30;;;;;;;1.88;1.25;;;8.20;87.60;;;;;;5071858;28;20460;-64
2024/01/05 02:46:56;;;;;;;2.17;0.80;;;8.10;87.80;;;;;;5071986;28;20035;-63
2024/01/05 02:49:21;;;;;;;2.65;1.20;;;8.10;87.90;;;;;;5071471;28;20429;-62
2024/01/05 02:51:47;;;;;;;3.50;1.10;;;8.10;88.00;;;;;;5052907;28;20025;-63
2024/01/05 02:54:13;;;;;;;3.90;0.93;;;8.10;88.20;;;;;;5050044;28;20071;-63
2024/01/05 02:56:39;;;;;;;2.90;1.02;;;8.00;88.30;;;;;;5051239;28;20385;-64
2024/01/05 02:59:05;;;;;;;4.13;1.05;;;8.00;88.70;;;;;;5051152;28;20049;-62
2024/01/05 03:01:31;;;;;;;2.65;1.08;;;8.00;88.70;;;;;;5051743;28;20052;-63
2024/01/05 03:03:57;;;;;;;1.92;1.15;;;8.00;88.90;;;;;;5051592;28;20462;-63
2024/01/05 03:06:23;;;;;;;2.25;1.20;;;8.00;89.10;;;;;;5051298;28;20037;-64
2024/01/05 03:08:49;;;;;;;3.00;1.17;;;8.00;89.10;;;;;;5051276;28;20033;-64
2024/01/05 03:11:15;;;;;;;2.67;1.30;;;8.00;89.20;;;;;;5050875;28;20033;-63
2024/01/05 03:13:41;;;;;;;3.22;1.20;;;7.90;89.40;;;;;;5050851;28;20087;-63
2024/01/05 03:16:07;;;;;;;3.70;1.30;;;7.90;89.60;;;;;;5051096;28;20025;-63
2024/01/05 03:18:32;;;;;;;2.88;1.30;;;7.90;89.80;;;;;;5051330;28;20029;-63
2024/01/05 03:20:58;;;;;;;6.43;1.42;;;7.90;90.00;;;;;;5051519;28;20040;-64
2024/01/05 03:23:24;;;;;;;3.05;1.00;;;7.80;90.20;;;;;;5051214;28;20390;-64
2024/01/05 03:25:50;;;;;;;6.90;1.20;;;7.80;90.10;;;;;;5051196;28;20029;-63
2024/01/05 03:28:17;;;;;;;7.68;1.60;;;7.80;90.20;;;;;;5051100;28;20124;-63
2024/01/05 03:30:43;;;;;;;6.90;1.35;;;7.80;90.30;;;;;;5051156;28;20029;-64
2024/01/05 03:33:09;;;;;;;4.50;1.50;;;7.80;90.40;;;;;;5051410;28;20533;-63
2024/01/05 03:35:37;;;;;;;4.13;1.55;;;7.80;90.50;;;;;;5055443;28;20056;-63
2024/01/05 03:38:03;;;;;;;3.20;1.40;;;7.80;90.60;;;;;;5055070;28;20029;-63
2024/01/05 03:40:28;;;;;;;6.20;1.88;;;7.80;90.70;;;;;;5054347;28;20083;-64
2024/01/05 03:42:54;;;;;;;3.15;1.17;;;7.80;90.70;;;;;;5055085;28;20041;-63
2024/01/05 03:45:19;;;;;;;5.32;1.90;;;7.80;90.70;;;;;;5054227;28;20388;-63
2024/01/05 03:47:45;;;;;;;5.70;1.50;;;7.70;90.80;;;;;;5054589;28;20029;-63
2024/01/05 03:50:11;;;;;;;3.70;1.15;;;7.70;90.80;;;;;;5054344;28;20105;-62
2024/01/05 03:52:36;;;;;;;4.82;1.60;;;7.70;90.90;;;;;;5054862;28;20104;-64
2024/01/05 03:55:03;;;;;;;3.88;1.13;;;7.70;91.00;;;;;;5054489;28;20063;-64
2024/01/05 03:57:28;;;;;;;4.30;1.10;;;7.60;91.10;;;;;;5054342;28;20057;-63
2024/01/05 03:59:54;;;;;;;3.45;1.60;;;7.60;91.20;;;;;;5056477;28;20132;-63
2024/01/05 04:02:20;;;;;;;6.30;1.38;;;7.60;91.20;;;;;;5074385;28;20024;-63
2024/01/05 04:04:45;;;;;;;4.38;1.27;;;7.60;91.40;;;;;;5068202;28;20100;-64
2024/01/05 04:07:11;;;;;;;3.67;1.10;;;7.60;91.50;;;;;;5053986;28;20025;-63
2024/01/05 04:09:36;;;;;;;2.65;1.50;;;7.60;91.60;;;;;;5053786;28;20021;-63
2024/01/05 04:12:02;;;;;;;4.07;1.23;;;7.60;91.70;;;;;;5054358;28;20367;-63
2024/01/05 04:14:28;;;;;;;3.63;1.30;;;7.60;91.70;;;;;;5053632;28;20119;-63
2024/01/05 04:16:54;;;;;;;4.88;1.30;;;7.60;91.80;;;;;;5054344;28;20033;-63
2024/01/05 04:19:19;;;;;;;3.00;1.02;;;7.50;91.90;;;;;;5053849;28;20024;-63
2024/01/05 04:21:46;;;;;;;5.72;1.00;;;7.50;92.00;;;;;;5053832;28;20025;-64
2024/01/05 04:24:11;;;;;;;2.65;1.30;;;7.50;92.00;;;;;;5053748;28;20402;-64
2024/01/05 04:26:37;;;;;;;4.63;1.27;;;7.50;92.00;;;;;;5051755;28;20021;-64
2024/01/05 04:29:03;;;;;;;4.80;1.30;;;7.50;92.10;;;;;;5053829;28;20032;-63
2024/01/05 04:31:28;;;;;;;6.32;1.40;;;7.50;92.10;;;;;;5053415;28;20029;-63
2024/01/05 04:33:55;;;;;;;5.28;1.40;;;7.50;92.10;;;;;;5053757;28;20458;-63
2024/01/05 04:36:20;;;;;;;4.65;1.20;;;7.50;92.40;;;;;;5053416;28;20385;-63
2024/01/05 04:38:47;;;;;;;3.78;1.42;;;7.50;92.00;;;;;;5053954;28;20057;-64
2024/01/05 04:41:15;;;;;;;4.90;1.13;;;7.50;92.10;;;;;;5053157;28;20035;-62
2024/01/05 04:43:40;;;;;;;2.92;1.35;;;7.50;92.30;;;;;;5053540;28;20036;-63
2024/01/05 04:46:07;;;;;;;4.10;1.60;;;7.50;92.20;;;;;;5056683;28;20024;-63
2024/01/05 04:48:33;;;;;;;4.05;1.38;;;7.50;92.30;;;;;;5067384;28;20028;-64
2024/01/05 04:51:00;;;;;;;3.60;1.20;;;7.40;92.10;;;;;;5054339;28;20382;-63
2024/01/05 04:53:26;;;;;;;2.92;1.50;;;7.50;92.40;;;;;;5057663;28;20108;-63
2024/01/05 04:55:51;;;;;;;3.83;1.25;;;7.50;92.50;;;;;;5060622;28;20461;-63
2024/01/05 04:58:17;;;;;;;6.57;1.75;;;7.50;92.40;;;;;;5064762;28;20051;-63
2024/01/05 05:00:43;;;;;;;3.00;1.60;;;7.50;92.40;;;;;;5055673;28;20040;-63
2024/01/05 05:03:09;;;;;;;5.93;1.75;;;7.50;92.30;;;;;;5053055;28;20328;-64
2024/01/05 05:05:39;;;;;;;4.80;1.65;;;7.50;92.20;;;;;;5056777;28;20048;-63
2024/01/05 05:08:05;;;;;;;4.15;1.50;;;7.50;92.30;;;;;;5059840;28;20484;-63
2024/01/05 05:10:30;;;;;;;4.57;1.70;;;7.40;92.40;;;;;;5063841;28;20059;-63
2024/01/05 05:12:56;;;;;;;7.00;1.70;;;7.40;92.40;;;;;;5055113;28;20036;-63
2024/01/05 05:15:22;;;;;;;3.35;1.63;;;7.40;92.50;;;;;;5052669;28;20033;-63
2024/01/05 05:17:47;;;;;;;5.63;1.60;;;7.40;92.70;;;;;;5053357;28;20492;-64
2024/01/05 05:20:13;;;;;;;3.00;1.65;;;7.40;92.70;;;;;;5053120;28;20163;-63
2024/01/05 05:22:38;;;;;;;5.28;1.65;;;7.40;92.70;;;;;;5052640;28;20031;-63
2024/01/05 05:25:05;;;;;;;4.95;1.75;;;7.40;92.80;;;;;;5052628;28;20450;-62
2024/01/05 05:27:31;;;;;;;4.63;1.77;;;7.40;92.70;;;;;;5052597;28;20114;-62
2024/01/05 05:29:57;;;;;;;8.23;2.33;;;7.40;92.70;;;;;;5050394;28;20028;-63
2024/01/05 05:32:23;;;;;;;5.53;2.30;;;7.40;92.60;;;;;;5052845;28;20108;-63
2024/01/05 05:34:50;;;;;;;8.23;2.00;;;7.40;92.80;;;;;;5052866;28;20017;-65
2024/01/05 05:37:16;;;;;;;4.72;1.52;;;7.50;92.90;;;;;;5052102;28;20486;-66
2024/01/05 05:39:42;;;;;;;5.80;1.90;;;7.50;92.70;;;;;;5062717;28;20109;-64
2024/01/05 05:42:08;;;;;;;3.65;1.65;;;7.50;92.40;;;;;;5061004;28;20103;-64
2024/01/05 05:44:33;;;;;;;5.10;1.80;;;7.40;92.30;;;;;;5062621;28;20039;-65
2024/01/05 05:46:59;;;;;;;4.25;1.65;;;7.40;92.30;;;;;;5063042;28;20416;-65
2024/01/05 05:49:24;;;;;;;5.50;1.55;;;7.40;92.10;;;;;;5070362;28;20082;-64
2024/01/05 05:51:50;;;;;;;6.13;2.10;;;7.40;91.80;;;;;;5072345;28;20507;-65
2024/01/05 05:54:16;;;;;;;3.58;1.42;;;7.30;91.20;;;;;;5053489;28;20385;-66
2024/01/05 05:56:42;;;;;;;3.75;1.20;;;7.30;91.00;;;;;;5052055;28;20135;-66
2024/01/05 05:59:08;;;;;;;4.18;1.73;;;7.30;90.50;;;;;;5058365;28;20045;-66
2024/01/05 06:01:33;;;;;;;2.63;1.40;;;7.20;90.30;;;;;;5065574;28;20398;-64
2024/01/05 06:03:59;;;;;;;4.72;1.27;;;7.20;90.60;;;;;;5054740;28;20448;-65
2024/01/05 06:06:24;;;;;;;3.70;1.25;;;7.20;90.60;;;;;;5051596;28;20446;-65
2024/01/05 06:08:54;;;;;;;2.70;1.30;;;7.20;90.50;;;;;;5056217;28;20074;-65
2024/01/05 06:11:20;;;;;;;3.80;1.30;;;7.10;90.40;;;;;;5067288;28;20492;-65
2024/01/05 06:13:46;;;;;;;7.25;1.40;;;7.10;90.30;;;;;;5061611;28;20040;-65
2024/01/05 06:16:13;;;;;;;3.35;1.30;;;7.10;90.40;;;;;;5063137;28;20032;-65
2024/01/05 06:18:39;;;;;;;4.95;1.48;;;7.10;90.50;;;;;;5067326;28;20036;-65
2024/01/05 06:21:05;;;;;;;4.20;1.65;;;7.00;90.50;;;;;;5061362;28;20485;-65
2024/01/05 06:23:32;;;;;;;4.40;1.55;;;7.10;90.60;;;;;;5058754;28;20044;-66
2024/01/05 06:25:57;;;;;;;3.05;1.33;;;7.10;90.40;;;;;;5062176;28;20078;-65
2024/01/05 06:28:23;;;;;;;3.10;1.40;;;7.10;90.40;;;;;;5063954;28;20020;-66
2024/01/05 06:30:49;;;;;;;3.88;1.50;;;7.10;90.30;;;;;;5062342;28;20396;-65
2024/01/05 06:33:14;;;;;;;4.40;1.48;;;7.00;90.20;;;;;;5059283;28;20056;-66
2024/01/05 06:35:40;;;;;;;3.10;1.25;;;7.00;90.20;;;;;;5063880;28;20519;-65
2024/01/05 06:38:06;;;;;;;3.80;1.70;;;7.10;90.30;;;;;;5051479;28;20100;-66
2024/01/05 06:40:31;;;;;;;2.63;1.60;;;7.10;90.30;;;;;;5067792;28;20100;-64
2024/01/05 06:42:57;;;;;;;5.18;2.67;;;7.00;90.20;;;;;;5055126;28;20036;-64
2024/01/05 06:45:24;;;;;;;2.40;1.35;;;7.00;90.20;;;;;;5050738;28;20036;-64
2024/01/05 06:47:50;;;;;;;2.90;1.55;;;7.00;90.20;;;;;;5051313;28;20072;-65
2024/01/05 06:50:16;;;;;;;5.75;1.52;;;7.00;90.30;;;;;;5061587;28;20061;-64
2024/01/05 06:52:41;;;;;;;5.85;1.70;;;7.00;90.20;;;;;;5054171;28;20029;-66
2024/01/05 06:55:08;;;;;;;2.42;1.63;;;7.00;90.60;;;;;;5052219;28;20414;-66
2024/01/05 06:57:35;;;;;;;2.65;1.27;;;7.00;90.80;;;;;;5051495;28;20394;-66
2024/01/05 07:00:05;;;;;;;5.13;1.58;;;7.00;90.70;;;;;;5052274;28;20052;-66
2024/01/05 07:02:31;;;;;;;6.03;1.50;;;7.00;90.50;;;;;;5049718;28;20195;-65
2024/01/05 07:04:57;;;;;;;3.88;1.45;;;7.10;90.60;;;;;;5052152;28;20025;-66
2024/01/05 07:07:23;;;;;;;2.58;1.17;;;7.10;90.50;;;;;;5051646;28;20025;-66
2024/01/05 07:09:49;;;;;;;2.42;1.33;;;7.20;90.50;;;;;;5054966;28;20377;-66
2024/01/05 07:12:15;;;;;;;3.17;1.60;;;7.20;90.50;;;;;;5055222;28;20028;-66
2024/01/05 07:14:40;;;;;;;6.72;1.65;;;7.30;90.50;;;;;;5055146;28;20039;-66
2024/01/05 07:17:06;;;;;;;4.32;1.45;;;7.30;90.50;;;;;;5054891;28;20021;-67
2024/01/05 07:19:32;;;;;;;4.25;1.20;;;7.30;90.60;;;;;;5053764;28;20056;-66
2024/01/05 07:21:57;;;;;;;4.32;1.52;;;7.30;90.50;;;;;;5058687;28;20106;-66
2024/01/05 07:24:23;;;;;;;2.22;1.00;;;7.40;90.40;;;;;;5061692;28;20029;-65
2024/01/05 07:26:48;;;;;;;5.07;1.10;;;7.40;90.40;;;;;;5059451;28;20040;-66
2024/01/05 07:29:14;;;;;;;2.47;1.40;;;7.50;90.30;;;;;;5052125;28;20398;-66
2024/01/05 07:31:40;;;;;;;3.25;1.30;;;7.50;90.00;;;;;;5054562;28;20021;-66
2024/01/05 07:34:07;;;;;;;3.78;1.30;;;7.60;89.80;;;;;;5054131;28;20033;-66
2024/01/05 07:36:33;;;;;;;5.45;1.60;;;7.60;88.50;;;;;;5064436;28;20028;-66
2024/01/05 07:39:01;;;;;;;5.78;1.60;;;7.70;87.60;;;;;;5074298;28;20028;-65
2024/01/05 07:41:27;;;;;;;5.68;1.60;;;7.70;87.10;;;;;;5073950;28;20025;-65
2024/01/05 07:43:53;;;;;;;5.95;1.88;;;7.70;86.40;;;;;;5073877;28;20082;-66
2024/01/05 07:46:19;;;;;;;4.35;1.40;;;7.80;86.00;;;;;;5073999;28;20024;-66
2024/01/05 07:48:46;;;;;;;3.35;1.58;;;7.80;85.30;;;;;;5073493;28;20511;-65
2024/01/05 07:51:12;;;;;;;2.28;1.17;;;7.80;84.90;;;;;;5073639;28;20065;-65
2024/01/05 07:53:38;;;;;;;3.53;1.50;;;7.90;84.30;;;;;;5072797;28;20032;-66
2024/01/05 07:56:05;;;;;;;3.72;1.70;;;7.90;83.60;;;;;;5073487;28;20032;-67
2024/01/05 07:58:31;;;;;;;4.50;1.73;;;7.90;83.50;;;;;;5070069;28;20044;-67
2024/01/05 08:00:57;;;;;;;5.05;2.00;;;8.00;83.60;;;;;;5072494;28;20088;-68
2024/01/05 08:03:23;;;;;;;3.47;1.60;;;8.00;83.10;;;;;;5071821;28;20083;-68
2024/01/05 08:05:48;;;;;;;3.05;1.60;;;8.00;82.90;;;;;;5073975;28;20494;-68
2024/01/05 08:08:14;;;;;;;2.53;1.30;;;8.00;82.40;;;;;;5074075;28;20074;-67
2024/01/05 08:10:40;;;;;;;1.92;1.08;;;8.10;81.60;;;;;;5073736;28;20020;-66
2024/01/05 08:13:06;;;;;;;3.15;1.00;;;8.10;81.00;;;;;;5073885;28;20036;-66
2024/01/05 08:15:32;;;;;;;1.75;1.10;;;8.10;79.90;;;;;;5073830;28;20032;-67
2024/01/05 08:17:58;;;;;;;3.47;1.33;;;8.20;80.10;;;;;;5072886;28;20032;-65
2024/01/05 08:20:24;;;;;;;3.28;1.52;;;8.20;79.40;;;;;;5073590;28;20034;-70
2024/01/05 08:22:49;;;;;;;4.30;1.20;;;8.30;79.30;;;;;;5073522;28;20399;-67
2024/01/05 08:25:15;;;;;;;3.97;1.63;;;8.30;79.00;;;;;;5074146;28;20025;-67
2024/01/05 08:27:42;;;;;;;4.30;1.55;;;8.30;78.10;;;;;;5073994;28;20033;-66
2024/01/05 08:30:11;;;;;;;3.58;1.70;;;8.40;78.60;;;;;;5073701;28;20104;-66
2024/01/05 08:32:38;;;;;;;3.65;1.58;;;8.40;78.20;;;;;;5073284;28;20047;-66
2024/01/05 08:35:06;;;;;;;3.63;1.40;;;8.40;77.50;;;;;;5073963;28;20246;-66
2024/01/05 08:37:31;;;;;;;4.20;1.38;;;8.40;77.00;;;;;;5061134;28;20033;-66
2024/01/05 08:39:57;;;;;;;2.67;1.50;;;8.50;77.40;;;;;;5053666;28;20358;-67
2024/01/05 08:42:23;;;;;;;4.13;1.80;;;8.40;77.20;;;;;;5053820;28;20432;-67
2024/01/05 08:44:50;;;;;;;7.10;1.67;;;8.40;77.60;;;;;;5053185;28;20425;-67
2024/01/05 08:47:16;;;;;;;5.43;2.17;;;8.40;77.70;;;;;;5053388;28;20353;-66
2024/01/05 08:49:42;;;;;;;4.57;1.83;;;8.40;77.70;;;;;;5053417;28;20036;-67
2024/01/05 08:52:08;;;;;;;3.60;1.90;;;8.40;77.70;;;;;;5052015;28;20029;-66
2024/01/05 08:54:33;;;;;;;4.13;1.25;;;8.40;77.30;;;;;;5053187;28;20486;-67
2024/01/05 08:56:59;;;;;;;4.38;1.80;;;8.40;77.30;;;;;;5053420;28;20025;-67
2024/01/05 08:59:25;;;;;;;3.65;1.73;;;8.40;77.40;;;;;;5052756;28;20080;-67
2024/01/05 09:01:51;;;;;;;2.35;1.55;;;8.50;77.40;;;;;;5052696;28;20025;-67
2024/01/05 09:04:16;;;;;;;6.43;1.55;;;8.50;77.30;;;;;;5053902;28;20073;-67
2024/01/05 09:06:42;;;;;;;5.22;1.75;;;8.60;76.90;;;;;;5053578;28;20025;-67
2024/01/05 09:09:10;;;;;;;4.47;1.63;;;8.60;76.50;;;;;;5052399;28;20113;-67
2024/01/05 09:11:36;;;;;;;2.75;1.70;;;8.70;76.10;;;;;;5053168;28;20128;-67
2024/01/05 09:14:02;;;;;;;5.25;1.80;;;8.70;75.70;;;;;;5053769;28;20029;-67
2024/01/05 09:16:28;;;;;;;4.53;2.00;;;8.70;75.80;;;;;;5052858;28;20055;-67
2024/01/05 09:18:53;;;;;;;5.68;1.95;;;8.80;75.30;;;;;;5052930;28;20029;-65
2024/01/05 09:21:19;;;;;;;5.03;2.00;;;8.80;75.40;;;;;;5053108;28;20128;-67
2024/01/05 09:23:45;;;;;;;6.15;2.13;;;8.80;75.50;;;;;;5053287;28;20083;-67
2024/01/05 09:26:14;;;;;;;2.85;1.90;;;8.80;75.40;;;;;;5052149;28;20095;-66
2024/01/05 09:28:40;;;;;;;4.50;2.17;;;8.90;75.60;;;;;;5052965;28;20041;-68
2024/01/05 09:31:07;;;;;;;4.15;2.35;;;8.80;75.50;;;;;;5053055;28;20057;-67
2024/01/05 09:33:32;;;;;;;3.63;2.40;;;8.80;75.90;;;;;;5052911;28;20029;-68
2024/01/05 09:35:59;;;;;;;4.20;2.28;;;8.80;76.00;;;;;;5052104;28;20051;-67
2024/01/05 09:38:25;;;;;;;5.88;2.85;;;8.80;76.40;;;;;;5052488;28;20095;-67
2024/01/05 09:40:52;;;;;;;5.80;3.55;;;8.80;76.70;;;;;;5051954;28;20025;-67
2024/01/05 09:43:21;;;;;;;3.42;2.35;;;8.80;77.10;;;;;;5052409;28;20033;-67
2024/01/05 09:45:50;;;;;;;4.80;2.05;;;8.80;77.40;;;;;;5052116;28;20036;-68
2024/01/05 09:48:19;;;;;;;3.45;2.30;;;8.80;77.40;;;;;;5052161;28;20431;-67
2024/01/05 09:50:53;;;;;;;7.88;2.40;;;8.90;77.70;;;;;;5051695;28;20524;-67
2024/01/05 09:53:19;;;;;;;6.32;2.40;;;8.80;77.40;;;;;;5052641;28;20068;-67
2024/01/05 09:55:49;;;;;;;4.55;2.10;;;8.80;77.60;;;;;;5051839;28;20032;-66
2024/01/05 09:58:15;;;;;;;3.97;2.50;;;8.90;77.90;;;;;;5052092;28;20029;-66
2024/01/05 10:00:48;;;;;;;3.22;2.30;;;8.90;78.00;;;;;;5051506;28;20049;-67
2024/01/05 10:03:22;;;;;;;5.68;2.50;;;8.90;78.30;;;;;;5051871;28;20512;-67
2024/01/05 10:05:53;;;;;;;4.53;2.40;;;8.90;78.40;;;;;;5051861;28;20028;-66
2024/01/05 10:08:21;;;;;;;6.95;4.00;;;8.90;78.30;;;;;;5055369;28;20017;-67
2024/01/05 10:10:59;;;;;;;4.32;2.30;;;8.90;78.30;;;;;;5072186;28;20141;-66
2024/01/05 10:13:24;;;;;;;4.07;2.33;;;8.90;78.30;;;;;;5072167;28;20178;-67
2024/01/05 10:16:00;;;;;;;3.97;2.20;;;9.00;78.40;;;;;;5071970;28;20131;-67
2024/01/05 10:18:29;;;;;;;4.38;2.22;;;9.00;78.60;;;;;;5072179;28;20027;-66
2024/01/05 10:20:57;;;;;;;5.03;2.53;;;9.00;79.20;;;;;;5071162;28;20073;-66
2024/01/05 10:23:23;;;;;;;4.32;2.45;;;9.00;78.80;;;;;;5071974;28;20048;-66
2024/01/05 10:25:51;;;;;;;5.80;3.17;;;9.00;78.90;;;;;;5071545;28;20028;-67
2024/01/05 10:28:26;;;;;;;5.60;2.70;;;9.00;79.10;;;;;;5071828;28;20024;-66
2024/01/05 10:30:52;;;;;;;7.30;3.60;;;9.00;79.30;;;;;;5071575;28;20029;-67
2024/01/05 10:33:21;;;;;;;7.65;4.45;;;9.00;79.60;;;;;;5071469;28;20511;-67
2024/01/05 10:35:46;;;;;;;7.88;4.80;;;9.00;80.10;;;;;;5071456;28;20035;-67
2024/01/05 10:38:16;;;;;;;8.45;4.38;;;9.10;80.50;;;;;;5071623;28;20028;-66
2024/01/05 10:40:41;;;;;;;7.28;4.18;;;9.10;81.00;;;;;;5070250;28;20025;-67
2024/01/05 10:43:17;;;;;;;7.53;3.47;;;9.10;80.60;;;;;;5050649;28;20041;-66
2024/01/05 10:45:44;;;;;;;6.78;3.90;;;9.10;80.40;;;;;;5051443;28;20111;-67
2024/01/05 10:48:13;;;;;;;9.60;4.68;;;9.20;80.20;;;;;;5051800;28;20025;-67
2024/01/05 10:50:43;;;;;;;9.45;4.35;;;9.10;79.90;;;;;;5051516;28;20048;-67
2024/01/05 10:53:09;;;;;;;9.07;4.82;;;9.10;80.60;;;;;;5051699;28;20033;-66
2024/01/05 10:55:36;;;;;;;8.48;5.18;;;9.20;80.90;;;;;;5051194;28;20025;-68
2024/01/05 10:58:02;;;;;;;10.00;5.53;;;9.20;81.10;;;;;;5051712;28;20079;-66
2024/01/05 11:00:28;;;;;;;9.95;5.50;;;9.20;80.90;;;;;;5051940;28;20401;-66
2024/01/05 11:03:06;;;;;;;9.02;5.57;;;9.20;80.80;;;;;;5051140;28;20653;-67
2024/01/05 11:05:32;;;;;;;9.10;5.43;;;9.20;80.90;;;;;;5051743;28;20021;-66
2024/01/05 11:08:01;;;;;;;7.72;5.78;;;9.20;81.10;;;;;;5049837;28;20107;-67
2024/01/05 11:10:55;;;;;;;12.50;6.20;;;9.20;81.30;;;;;;5051571;28;20489;-67
2024/01/05 11:13:30;;;;;;;10.40;6.50;;;9.20;81.10;;;;;;5050082;28;20029;-67
2024/01/05 11:16:23;;;;;;;12.10;6.03;;;9.20;81.10;;;;;;5051111;28;20094;-67
2024/01/05 11:18:49;;;;;;;10.82;6.38;;;9.20;81.10;;;;;;5051011;28;20036;-67
2024/01/05 11:21:19;;;;;;;8.57;5.32;;;9.20;81.10;;;;;;5050990;28;20373;-67
2024/01/05 11:23:46;;;;;;;11.63;6.85;;;9.30;81.00;;;;;;5051084;28;20056;-67
2024/01/05 11:26:35;;;;;;;11.60;6.25;;;9.30;81.00;;;;;;5051302;28;20075;-67
2024/01/05 11:29:02;;;;;;;10.63;6.90;;;9.40;80.70;;;;;;5051244;28;20033;-67
2024/01/05 11:31:57;;;;;;;10.77;6.13;;;9.40;80.60;;;;;;5051453;28;20159;-67
2024/01/05 11:34:29;;;;;;;10.85;6.07;;;9.40;80.90;;;;;;5041970;28;20040;-67
2024/01/05 11:36:55;;;;;;;13.70;6.30;;;9.40;81.20;;;;;;5050639;28;20029;-67
2024/01/05 11:39:47;;;;;;;15.13;7.05;;;9.40;81.50;;;;;;5051207;28;20025;-67
2024/01/05 11:42:25;;;;;;;10.38;6.45;;;9.50;81.30;;;;;;5050996;28;20466;-66
2024/01/05 11:44:58;;;;;;;9.52;6.50;;;9.50;81.10;;;;;;5050752;28;20113;-66
2024/01/05 11:47:45;;;;;;;13.30;6.80;;;9.50;81.00;;;;;;5051207;28;20029;-66
2024/01/05 11:50:28;;;;;;;14.75;7.13;;;9.50;81.00;;;;;;5051798;28;20052;-67
2024/01/05 11:53:16;;;;;;;11.13;6.80;;;9.50;81.20;;;;;;5050797;28;20458;-67
2024/01/05 11:55:47;;;;;;;15.85;7.50;;;9.50;81.50;;;;;;5053836;28;20029;-67
2024/01/05 11:58:20;;;;;;;15.18;6.47;;;9.50;81.70;;;;;;5054819;28;20029;-67
2024/01/05 12:00:47;;;;;;;13.40;7.15;;;9.50;81.90;;;;;;5054163;28;20045;-67
2024/01/05 12:03:13;;;;;;;14.65;7.25;;;9.50;82.20;;;;;;5054310;28;20033;-67
2024/01/05 12:05:39;;;;;;;10.40;7.20;;;9.60;82.50;;;;;;5054093;28;20108;-71
2024/01/05 12:08:08;;;;;;;15.80;7.97;;;9.60;82.70;;;;;;5054248;28;20104;-67
2024/01/05 12:10:34;;;;;;;17.60;8.02;;;9.70;82.60;;;;;;5054121;28;20025;-67
2024/01/05 12:13:00;;;;;;;13.85;8.20;;;9.70;82.60;;;;;;5054057;28;20085;-67
2024/01/05 12:15:26;;;;;;;15.25;8.45;;;9.70;82.50;;;;;;5054280;28;20040;-67
2024/01/05 12:18:03;;;;;;;12.70;8.02;;;9.80;82.60;;;;;;5062124;28;20020;-67
2024/01/05 12:20:32;;;;;;;13.98;7.93;;;9.80;82.50;;;;;;5074178;28;20098;-67
2024/01/05 12:22:58;;;;;;;12.75;7.70;;;9.80;82.50;;;;;;5073473;28;20421;-67
2024/01/05 12:25:24;;;;;;;16.55;9.77;;;9.70;82.60;;;;;;5073935;28;20079;-67
2024/01/05 12:27:50;;;;;;;14.77;8.50;;;9.60;83.00;;;;;;5073731;28;20500;-66
2024/01/05 12:30:16;;;;;;;14.43;9.15;;;9.50;83.40;;;;;;5073972;28;20054;-66
2024/01/05 12:32:43;;;;;;;15.10;8.65;;;9.50;84.00;;;;;;5073619;28;20031;-67
2024/01/05 12:35:10;;;;;;;17.98;9.00;;;9.40;84.40;;;;;;5072631;28;20495;-66
2024/01/05 12:37:36;;;;;;;13.40;8.80;;;9.30;85.00;;;;;;5073866;28;20029;-67
2024/01/05 12:40:12;;;;;;;18.33;9.32;;;9.30;85.40;;;;;;5073343;28;20047;-67
2024/01/05 12:42:38;;;;;;;17.65;9.25;;;9.20;86.10;;;;;;5073573;28;20026;-67
2024/01/05 12:45:08;;;;;;;16.63;9.70;;;9.10;86.40;;;;;;5073441;28;20428;-67
2024/01/05 12:47:34;;;;;;;15.20;9.75;;;9.10;87.10;;;;;;5063501;28;20017;-67
2024/01/05 12:50:03;;;;;;;16.92;9.38;;;9.00;87.60;;;;;;5053338;28;20025;-67
2024/01/05 12:52:36;;;;;;;17.35;9.35;;;9.00;87.90;;;;;;5053569;28;20108;-66
2024/01/05 12:55:03;;;;;;;20.23;9.95;;;9.10;87.80;;;;;;5053200;28;20347;-67